createdAt,value
2019-05-25T00:00:52.957Z,97295.00
2019-05-25T00:03:24.311Z,97307.00
2019-05-25T00:05:55.617Z,97296.00
2019-05-25T00:08:26.948Z,97306.00
2019-05-25T00:10:58.344Z,97308.00
2019-05-25T00:13:29.671Z,97300.00
2019-05-25T00:16:01.009Z,97309.00
2019-05-25T00:18:32.334Z,97291.00
2019-05-25T00:21:03.815Z,97294.00
2019-05-25T00:23:35.150Z,97293.00
2019-05-25T00:26:06.558Z,97305.00
2019-05-25T00:28:38.980Z,97297.00
2019-05-25T00:31:12.057Z,97312.00
2019-05-25T00:33:43.458Z,97285.00
2019-05-25T00:36:17.879Z,97297.00
2019-05-25T00:38:49.214Z,97291.00
2019-05-25T00:41:20.579Z,97304.00
2019-05-25T00:43:51.923Z,97301.00
2019-05-25T00:46:23.248Z,97299.00
2019-05-25T00:48:54.597Z,97293.00
2019-05-25T00:51:25.955Z,97303.00
2019-05-25T00:53:57.272Z,97305.00
2019-05-25T00:56:28.676Z,97299.00
2019-05-25T00:58:59.968Z,97300.00
2019-05-25T01:01:31.313Z,97291.00
2019-05-25T01:04:02.688Z,97300.00
2019-05-25T01:06:34.253Z,97297.00
2019-05-25T01:09:07.191Z,97291.00
2019-05-25T01:11:38.629Z,97284.00
2019-05-25T01:14:09.990Z,97309.00
2019-05-25T01:16:41.428Z,97298.00
2019-05-25T01:19:12.683Z,97298.00
2019-05-25T01:21:45.140Z,97307.00
2019-05-25T01:24:16.521Z,97312.00
2019-05-25T01:26:47.852Z,97311.00
2019-05-25T01:29:19.135Z,97313.00
2019-05-25T01:31:50.571Z,97311.00
2019-05-25T01:34:21.934Z,97302.00
2019-05-25T01:36:53.320Z,97301.00
2019-05-25T01:39:24.671Z,97294.00
2019-05-25T01:41:56.014Z,97310.00
2019-05-25T01:44:27.445Z,97309.00
2019-05-25T01:46:58.789Z,97300.00
2019-05-25T01:49:30.142Z,97307.00
2019-05-25T01:52:01.499Z,97300.00
2019-05-25T01:54:32.923Z,97290.00
2019-05-25T01:57:04.341Z,97290.00
2019-05-25T01:59:35.732Z,97298.00
2019-05-25T02:02:07.113Z,97291.00
2019-05-25T02:04:38.427Z,97306.00
2019-05-25T02:07:09.785Z,97302.00
2019-05-25T02:09:41.084Z,97305.00
2019-05-25T02:12:12.462Z,97301.00
2019-05-25T02:14:43.779Z,97304.00
2019-05-25T02:17:16.094Z,97289.00
2019-05-25T02:19:47.444Z,97289.00
2019-05-25T02:22:18.815Z,97292.00
2019-05-25T02:24:50.143Z,97293.00
2019-05-25T02:27:21.500Z,97290.00
2019-05-25T02:29:52.881Z,97290.00
2019-05-25T02:32:24.232Z,97298.00
2019-05-25T02:34:55.582Z,97293.00
2019-05-25T02:37:26.890Z,97295.00
2019-05-25T02:39:58.203Z,97298.00
2019-05-25T02:42:29.559Z,97299.00
2019-05-25T02:45:02.523Z,97304.00
2019-05-25T02:47:33.876Z,97290.00
2019-05-25T02:50:08.539Z,97291.00
2019-05-25T02:52:39.902Z,97287.00
2019-05-25T02:55:13.281Z,97293.00
2019-05-25T02:57:44.591Z,97286.00
2019-05-25T03:00:16.249Z,97295.00
2019-05-25T03:02:48.053Z,97285.00
2019-05-25T03:05:19.571Z,97284.00
2019-05-25T03:07:51.884Z,97281.00
2019-05-25T03:10:23.241Z,97293.00
2019-05-25T03:12:56.288Z,97286.00
2019-05-25T03:15:27.642Z,97284.00
2019-05-25T03:17:58.987Z,97289.00
2019-05-25T03:20:30.764Z,97296.00
2019-05-25T03:23:02.746Z,97303.00
2019-05-25T03:25:48.539Z,97301.00
2019-05-25T03:28:07.072Z,97296.00
2019-05-25T03:30:39.059Z,97294.00
2019-05-25T03:33:10.359Z,97301.00
2019-05-25T03:35:41.792Z,97291.00
2019-05-25T03:38:14.113Z,97291.00
2019-05-25T03:40:45.458Z,97299.00
2019-05-25T03:43:16.811Z,97293.00
2019-05-25T03:45:48.129Z,97289.00
2019-05-25T03:48:19.494Z,97302.00
2019-05-25T03:50:50.802Z,97308.00
2019-05-25T03:53:22.178Z,97298.00
2019-05-25T03:56:05.166Z,97300.00
2019-05-25T03:58:27.540Z,97302.00
2019-05-25T04:00:58.852Z,97308.00
2019-05-25T04:03:30.219Z,97305.00
2019-05-25T04:06:01.611Z,97298.00
2019-05-25T04:08:32.957Z,97301.00
2019-05-25T04:11:04.269Z,97299.00
2019-05-25T04:13:35.624Z,97310.00
2019-05-25T04:16:07.107Z,97305.00
2019-05-25T04:18:38.472Z,97304.00
2019-05-25T04:21:09.825Z,97317.00
2019-05-25T04:23:41.224Z,97305.00
2019-05-25T04:26:22.125Z,97313.00
2019-05-25T04:28:45.718Z,97321.00
2019-05-25T04:31:17.038Z,97321.00
2019-05-25T04:33:48.412Z,97321.00
2019-05-25T04:36:19.834Z,97322.00
2019-05-25T04:38:51.203Z,97313.00
2019-05-25T04:41:22.572Z,97318.00
2019-05-25T04:43:53.930Z,97325.00
2019-05-25T04:46:25.274Z,97322.00
2019-05-25T04:48:56.686Z,97319.00
2019-05-25T04:51:28.031Z,97332.00
2019-05-25T04:53:59.391Z,97328.00
2019-05-25T04:56:39.710Z,97330.00
2019-05-25T04:59:03.813Z,97335.00
2019-05-25T05:01:35.154Z,97340.00
2019-05-25T05:04:06.558Z,97335.00
2019-05-25T05:06:37.902Z,97324.00
2019-05-25T05:09:09.434Z,97332.00
2019-05-25T05:11:40.780Z,97317.00
2019-05-25T05:14:12.149Z,97333.00
2019-05-25T05:16:43.458Z,97324.00
2019-05-25T05:19:14.818Z,97318.00
2019-05-25T05:21:46.195Z,97324.00
2019-05-25T05:24:19.294Z,97326.00
2019-05-25T05:26:55.664Z,97322.00
2019-05-25T05:29:23.777Z,97327.00
2019-05-25T05:31:55.176Z,97330.00
2019-05-25T05:34:26.577Z,97331.00
2019-05-25T05:36:58.850Z,97327.00
2019-05-25T05:39:31.097Z,97319.00
2019-05-25T05:42:04.452Z,97330.00
2019-05-25T05:44:39.165Z,97330.00
2019-05-25T05:47:14.103Z,97333.00
2019-05-25T05:49:52.596Z,97330.00
2019-05-25T05:52:22.573Z,97336.00
2019-05-25T05:54:56.832Z,97339.00
2019-05-25T05:57:28.215Z,97337.00
2019-05-25T05:59:59.545Z,97336.00
2019-05-25T06:02:30.885Z,97329.00
2019-05-25T06:05:03.072Z,97343.00
2019-05-25T06:07:34.593Z,97330.00
2019-05-25T06:10:07.922Z,97333.00
2019-05-25T06:12:39.373Z,97329.00
2019-05-25T06:15:10.964Z,97337.00
2019-05-25T06:17:42.353Z,97337.00
2019-05-25T06:20:14.588Z,97347.00
2019-05-25T06:22:45.933Z,97343.00
2019-05-25T06:25:18.398Z,97346.00
2019-05-25T06:27:49.784Z,97352.00
2019-05-25T06:30:23.472Z,97344.00
2019-05-25T06:32:54.797Z,97342.00
2019-05-25T06:35:26.109Z,97348.00
2019-05-25T06:37:57.493Z,97339.00
2019-05-25T06:40:28.829Z,97354.00
2019-05-25T06:43:00.198Z,97347.00
2019-05-25T06:45:31.500Z,97342.00
2019-05-25T06:48:02.873Z,97342.00
2019-05-25T06:50:34.234Z,97354.00
2019-05-25T06:53:05.607Z,97355.00
2019-05-25T06:55:36.964Z,97367.00
2019-05-25T06:58:08.335Z,97365.00
2019-05-25T07:00:39.643Z,97358.00
2019-05-25T07:03:11.001Z,97363.00
2019-05-25T07:05:42.330Z,97356.00
2019-05-25T07:08:13.727Z,97356.00
2019-05-25T07:10:45.008Z,97366.00
2019-05-25T07:13:16.360Z,97365.00
2019-05-25T07:15:47.703Z,97366.00
2019-05-25T07:18:19.082Z,97371.00
2019-05-25T07:20:53.493Z,97371.00
2019-05-25T07:23:24.901Z,97375.00
2019-05-25T07:25:56.221Z,97368.00
2019-05-25T07:28:27.607Z,97368.00
2019-05-25T07:30:58.915Z,97366.00
2019-05-25T07:33:30.282Z,97365.00
2019-05-25T07:36:01.586Z,97371.00
2019-05-25T07:38:32.940Z,97367.00
2019-05-25T07:41:04.262Z,97363.00
2019-05-25T07:43:35.636Z,97363.00
2019-05-25T07:46:06.987Z,97368.00
2019-05-25T07:48:38.368Z,97367.00
2019-05-25T07:51:09.703Z,97371.00
2019-05-25T07:53:41.018Z,97366.00
2019-05-25T07:56:12.584Z,97357.00
2019-05-25T07:58:43.947Z,97361.00
2019-05-25T08:01:15.367Z,97376.00
2019-05-25T08:03:46.728Z,97373.00
2019-05-25T08:06:18.092Z,97373.00
2019-05-25T08:08:49.660Z,97385.00
2019-05-25T08:11:20.994Z,97370.00
2019-05-25T08:13:52.345Z,97371.00
2019-05-25T08:16:25.954Z,97364.00
2019-05-25T08:18:57.305Z,97374.00
2019-05-25T08:21:28.640Z,97379.00
2019-05-25T08:24:00.012Z,97371.00
2019-05-25T08:26:31.437Z,97371.00
2019-05-25T08:29:02.797Z,97374.00
2019-05-25T08:31:34.135Z,97369.00
2019-05-25T08:34:05.497Z,97367.00
2019-05-25T08:36:39.824Z,97360.00
2019-05-25T08:39:11.189Z,97381.00
2019-05-25T08:41:45.468Z,97368.00
2019-05-25T08:44:15.676Z,97369.00
2019-05-25T08:46:47.006Z,97375.00
2019-05-25T08:49:18.379Z,97372.00
2019-05-25T08:51:49.722Z,97377.00
2019-05-25T08:54:21.079Z,97374.00
2019-05-25T08:56:52.412Z,97384.00
2019-05-25T08:59:23.786Z,97380.00
2019-05-25T09:01:55.144Z,97378.00
2019-05-25T09:04:26.542Z,97382.00
2019-05-25T09:06:58.980Z,97385.00
2019-05-25T09:09:30.423Z,97392.00
2019-05-25T09:12:02.443Z,97378.00
2019-05-25T09:14:33.881Z,97375.00
2019-05-25T09:17:06.218Z,97384.00
2019-05-25T09:19:37.593Z,97390.00
2019-05-25T09:22:08.932Z,97378.00
2019-05-25T09:24:40.349Z,97391.00
2019-05-25T09:27:11.696Z,97391.00
2019-05-25T09:29:43.050Z,97391.00
2019-05-25T09:32:15.357Z,97379.00
2019-05-25T09:34:46.764Z,97388.00
2019-05-25T09:37:18.099Z,97388.00
2019-05-25T09:39:49.479Z,97392.00
2019-05-25T09:42:21.994Z,97385.00
2019-05-25T09:44:53.342Z,97378.00
2019-05-25T09:47:24.671Z,97380.00
2019-05-25T09:49:56.030Z,97379.00
2019-05-25T09:52:27.409Z,97384.00
2019-05-25T09:54:58.709Z,97367.00
2019-05-25T09:57:30.108Z,97374.00
2019-05-25T10:00:01.412Z,97364.00
2019-05-25T10:02:32.789Z,97363.00
2019-05-25T10:05:04.497Z,97368.00
2019-05-25T10:07:35.793Z,97381.00
2019-05-25T10:10:07.624Z,97374.00
2019-05-25T10:12:39.030Z,97377.00
2019-05-25T10:15:11.560Z,97371.00
2019-05-25T10:17:42.984Z,97376.00
2019-05-25T10:20:15.581Z,97368.00
2019-05-25T10:22:46.957Z,97370.00
2019-05-25T10:25:18.421Z,97379.00
2019-05-25T10:27:49.881Z,97365.00
2019-05-25T10:30:24.264Z,97378.00
2019-05-25T10:32:55.858Z,97368.00
2019-05-25T10:35:27.201Z,97366.00
2019-05-25T10:37:58.542Z,97365.00
2019-05-25T10:40:29.916Z,97356.00
2019-05-25T10:43:01.278Z,97357.00
2019-05-25T10:45:32.763Z,97354.00
2019-05-25T10:48:04.135Z,97353.00
2019-05-25T10:50:35.529Z,97348.00
2019-05-25T10:53:06.921Z,97346.00
2019-05-25T10:55:38.391Z,97344.00
2019-05-25T10:58:09.731Z,97345.00
2019-05-25T11:00:41.047Z,97341.00
2019-05-25T11:03:12.429Z,97342.00
2019-05-25T11:05:43.824Z,97338.00
2019-05-25T11:08:15.174Z,97351.00
2019-05-25T11:10:46.521Z,97354.00
2019-05-25T11:13:17.921Z,97345.00
2019-05-25T11:15:49.248Z,97354.00
2019-05-25T11:18:20.569Z,97342.00
2019-05-25T11:20:51.925Z,97342.00
2019-05-25T11:23:23.273Z,97343.00
2019-05-25T11:25:54.579Z,97356.00
2019-05-25T11:28:25.900Z,97338.00
2019-05-25T11:30:57.260Z,97348.00
2019-05-25T11:33:28.580Z,97335.00
2019-05-25T11:35:59.955Z,97350.00
2019-05-25T11:38:32.385Z,97345.00
2019-05-25T11:41:03.749Z,97344.00
2019-05-25T11:43:35.212Z,97346.00
2019-05-25T11:46:06.580Z,97351.00
2019-05-25T11:48:37.932Z,97343.00
2019-05-25T11:51:09.261Z,97345.00
2019-05-25T11:53:40.626Z,97350.00
2019-05-25T11:56:12.008Z,97343.00
2019-05-25T11:58:47.306Z,97339.00
2019-05-25T12:01:16.562Z,97331.00
2019-05-25T12:03:47.975Z,97342.00
2019-05-25T12:06:19.426Z,97338.00
2019-05-25T12:08:50.798Z,97344.00
2019-05-25T12:11:23.074Z,97339.00
2019-05-25T12:13:54.482Z,97337.00
2019-05-25T12:16:25.810Z,97324.00
2019-05-25T12:18:57.193Z,97327.00
2019-05-25T12:21:28.549Z,97337.00
2019-05-25T12:23:59.913Z,97333.00
2019-05-25T12:26:31.335Z,97326.00
2019-05-25T12:29:02.725Z,97322.00
2019-05-25T12:31:34.150Z,97334.00
2019-05-25T12:34:05.563Z,97328.00
2019-05-25T12:36:36.900Z,97322.00
2019-05-25T12:39:08.914Z,97322.00
2019-05-25T12:41:40.267Z,97327.00
2019-05-25T12:44:11.628Z,97317.00
2019-05-25T12:46:42.951Z,97321.00
2019-05-25T12:49:14.353Z,97319.00
2019-05-25T12:51:45.670Z,97322.00
2019-05-25T12:54:17.063Z,97331.00
2019-05-25T12:56:48.433Z,97329.00
2019-05-25T12:59:19.794Z,97325.00
2019-05-25T13:01:51.178Z,97331.00
2019-05-25T13:04:22.552Z,97323.00
2019-05-25T13:06:53.863Z,97321.00
2019-05-25T13:09:25.433Z,97313.00
2019-05-25T13:11:56.787Z,97330.00
2019-05-25T13:14:28.179Z,97312.00
2019-05-25T13:16:59.532Z,97316.00
2019-05-25T13:19:30.908Z,97313.00
2019-05-25T13:22:02.295Z,97318.00
2019-05-25T13:24:33.682Z,97316.00
2019-05-25T13:27:05.981Z,97311.00
2019-05-25T13:29:37.363Z,97313.00
2019-05-25T13:32:08.713Z,97317.00
2019-05-25T13:34:41.358Z,97320.00
2019-05-25T13:37:12.956Z,97314.00
2019-05-25T13:39:47.484Z,97321.00
2019-05-25T13:42:18.834Z,97314.00
2019-05-25T13:44:50.188Z,97325.00
2019-05-25T13:47:21.509Z,97323.00
2019-05-25T13:49:52.920Z,97317.00
2019-05-25T13:52:24.244Z,97318.00
2019-05-25T13:54:55.598Z,97319.00
2019-05-25T13:57:27.000Z,97333.00
2019-05-25T13:59:58.375Z,97320.00
2019-05-25T14:02:30.700Z,97321.00
2019-05-25T14:05:02.066Z,97316.00
2019-05-25T14:07:33.567Z,97327.00
2019-05-25T14:10:07.345Z,97315.00
2019-05-25T14:12:38.776Z,97322.00
2019-05-25T14:15:10.717Z,97315.00
2019-05-25T14:17:42.130Z,97325.00
2019-05-25T14:20:13.904Z,97327.00
2019-05-25T14:22:45.386Z,97346.00
2019-05-25T14:25:16.911Z,97336.00
2019-05-25T14:27:48.249Z,97340.00
2019-05-25T14:30:21.222Z,97336.00
2019-05-25T14:32:52.593Z,97332.00
2019-05-25T14:35:23.985Z,97334.00
2019-05-25T14:37:56.912Z,97329.00
2019-05-25T14:40:28.403Z,97316.00
2019-05-25T14:42:59.784Z,97341.00
2019-05-25T14:45:31.190Z,97323.00
2019-05-25T14:48:02.591Z,97337.00
2019-05-25T14:50:34.001Z,97336.00
2019-05-25T14:53:05.421Z,97335.00
2019-05-25T14:55:36.828Z,97329.00
2019-05-25T14:58:08.380Z,97338.00
2019-05-25T15:00:39.813Z,97322.00
2019-05-25T15:03:11.123Z,97325.00
2019-05-25T15:05:45.569Z,97321.00
2019-05-25T15:08:17.052Z,97327.00
2019-05-25T15:10:48.444Z,97328.00
2019-05-25T15:13:19.783Z,97335.00
2019-05-25T15:15:51.108Z,97324.00
2019-05-25T15:18:22.418Z,97325.00
2019-05-25T15:20:54.799Z,97329.00
2019-05-25T15:23:26.148Z,97328.00
2019-05-25T15:25:57.465Z,97340.00
2019-05-25T15:28:29.629Z,97331.00
2019-05-25T15:31:01.015Z,97353.00
2019-05-25T15:33:32.321Z,97352.00
2019-05-25T15:36:03.726Z,97354.00
2019-05-25T15:38:35.090Z,97337.00
